Time;durP1;ratioP1;P1;durP2;ratioP2;P2;SDS_P1;SDS_P2;PMS_P1;PMS_P2;Temp;Humidity;BMP_temperature;BMP_pressure;BME280_temperature;BME280_humidity;BME280_pressure;Samples;Min_cycle;Max_cycle;Signal;HPM_P1;HPM_P2
2020/12/01 00:00:44;;;;;;;25.67;20.67;;;;;;;;;;5093858;28;20220;-64
2020/12/01 00:03:11;;;;;;;33.20;23.05;;;;;;;;;;5093681;28;20613;-63
2020/12/01 00:05:37;;;;;;;29.23;22.58;;;;;;;;;;5093698;28;20729;-64
2020/12/01 00:08:04;;;;;;;27.70;22.08;;;;;;;;;;5093651;28;20242;-64
2020/12/01 00:10:34;;;;;;;30.45;22.40;;;;;;;;;;5093764;28;20628;-65
2020/12/01 00:13:01;;;;;;;27.20;21.67;;;;;;;;;;5094123;28;20261;-64
2020/12/01 00:15:28;;;;;;;29.20;22.25;;;;;;;;;;5094004;28;20196;-63
2020/12/01 00:17:55;;;;;;;29.27;21.08;;;;;;;;;;5093516;28;20684;-63
2020/12/01 00:20:23;;;;;;;27.75;20.88;;;;;;;;;;5093533;28;20216;-64
2020/12/01 00:22:50;;;;;;;28.02;20.50;;;;;;;;;;5093397;28;20200;-64
2020/12/01 00:25:17;;;;;;;29.30;21.98;;;;;;;;;;5096648;28;20250;-64
2020/12/01 00:27:44;;;;;;;28.85;23.30;;;;;;;;;;5097565;28;20664;-64
2020/12/01 00:30:12;;;;;;;25.55;19.20;;;;;;;;;;5097221;28;20691;-65
2020/12/01 00:32:38;;;;;;;26.67;20.90;;;;;;;;;;5097688;28;20204;-65
2020/12/01 00:35:07;;;;;;;24.67;20.27;;;;;;;;;;5097862;28;20204;-64
2020/12/01 00:37:34;;;;;;;32.83;20.50;;;;;;;;;;5097537;28;20229;-65
2020/12/01 00:40:01;;;;;;;27.90;21.33;;;;;;;;;;5097564;28;20220;-64
2020/12/01 00:42:27;;;;;;;27.85;21.83;;;;;;;;;;5097540;28;20203;-64
2020/12/01 00:44:54;;;;;;;24.77;20.30;;;;;;;;;;5099977;28;20686;-65
2020/12/01 00:47:21;;;;;;;26.13;21.20;;;;;;;;;;5100635;28;20733;-64
2020/12/01 00:49:47;;;;;;;26.98;21.40;;;;;;;;;;5098328;28;20246;-64
2020/12/01 00:52:15;;;;;;;27.40;20.52;;;;;;;;;;5097803;28;20200;-64
2020/12/01 00:54:42;;;;;;;26.33;20.10;;;;;;;;;;5097223;28;20201;-64
2020/12/01 00:57:09;;;;;;;27.60;20.55;;;;;;;;;;5097386;28;20204;-65
2020/12/01 00:59:35;;;;;;;30.05;21.48;;;;;;;;;;5103114;28;20714;-63
2020/12/01 01:02:02;;;;;;;28.42;20.30;;;;;;;;;;5103121;28;20603;-64
2020/12/01 01:04:29;;;;;;;27.55;21.45;;;;;;;;;;5101081;28;20253;-65
2020/12/01 01:06:55;;;;;;;27.98;20.88;;;;;;;;;;5100308;28;20261;-63
2020/12/01 01:09:23;;;;;;;27.00;20.55;;;;;;;;;;5099842;28;20274;-62
2020/12/01 01:11:50;;;;;;;30.48;22.10;;;;;;;;;;5098509;28;20204;-64
2020/12/01 01:14:17;;;;;;;30.00;22.30;;;;;;;;;;5097878;28;20668;-64
2020/12/01 01:16:44;;;;;;;30.25;22.33;;;;;;;;;;5097253;28;20226;-64
2020/12/01 01:19:11;;;;;;;26.73;21.08;;;;;;;;;;5096844;28;20228;-63
2020/12/01 01:21:41;;;;;;;27.33;21.15;;;;;;;;;;5097140;28;20543;-64
2020/12/01 01:24:08;;;;;;;28.88;21.83;;;;;;;;;;5096816;28;20204;-64
2020/12/01 01:26:35;;;;;;;31.60;21.17;;;;;;;;;;5099848;28;20201;-64
2020/12/01 01:29:02;;;;;;;28.38;20.95;;;;;;;;;;5102929;28;20216;-65
2020/12/01 01:31:29;;;;;;;26.15;19.63;;;;;;;;;;5100302;28;20216;-63
2020/12/01 01:33:56;;;;;;;27.00;20.25;;;;;;;;;;5101363;28;20203;-63
2020/12/01 01:36:22;;;;;;;26.92;20.63;;;;;;;;;;5097788;28;20200;-64
2020/12/01 01:38:49;;;;;;;25.65;19.17;;;;;;;;;;5099316;28;20201;-64
2020/12/01 01:41:16;;;;;;;28.15;20.48;;;;;;;;;;5106855;28;20192;-64
2020/12/01 01:43:44;;;;;;;26.40;20.17;;;;;;;;;;5102899;28;20262;-63
2020/12/01 01:46:43;;;;;;;26.00;19.90;;;;;;;;;;5097526;28;20254;-64
2020/12/01 01:49:13;;;;;;;27.15;19.23;;;;;;;;;;5035765;28;20260;-64
2020/12/01 01:51:41;;;;;;;26.63;20.08;;;;;;;;;;5037175;28;20787;-63
2020/12/01 01:54:08;;;;;;;24.23;19.33;;;;;;;;;;5064851;28;20736;-63
2020/12/01 01:56:37;;;;;;;24.52;19.52;;;;;;;;;;5100842;28;20211;-63
2020/12/01 01:59:05;;;;;;;25.35;18.05;;;;;;;;;;5099869;28;20316;-64
2020/12/01 02:01:32;;;;;;;22.90;18.50;;;;;;;;;;5097940;28;20246;-65
2020/12/01 02:03:59;;;;;;;21.58;17.05;;;;;;;;;;5096981;28;20197;-63
2020/12/01 02:06:27;;;;;;;22.30;18.00;;;;;;;;;;5097219;28;20600;-64
2020/12/01 02:08:56;;;;;;;25.17;19.38;;;;;;;;;;5096459;28;20609;-63
2020/12/01 02:11:24;;;;;;;22.83;18.00;;;;;;;;;;5096224;28;20242;-63
2020/12/01 02:13:55;;;;;;;24.10;19.20;;;;;;;;;;5096820;28;20208;-64
2020/12/01 02:16:23;;;;;;;20.27;15.95;;;;;;;;;;5096445;28;20184;-63
2020/12/01 02:18:52;;;;;;;21.35;16.20;;;;;;;;;;5095963;28;20671;-63
2020/12/01 02:21:40;;;;;;;23.35;18.42;;;;;;;;;;5096239;28;20199;-64
2020/12/01 02:24:07;;;;;;;22.88;18.65;;;;;;;;;;5090881;28;20204;-64
2020/12/01 02:26:36;;;;;;;20.83;16.60;;;;;;;;;;5095722;28;20250;-64
2020/12/01 02:29:07;;;;;;;22.27;18.13;;;;;;;;;;5095428;28;20631;-64
2020/12/01 02:31:34;;;;;;;22.80;18.40;;;;;;;;;;5095600;28;20257;-64
2020/12/01 02:34:04;;;;;;;21.65;16.02;;;;;;;;;;5096270;28;20196;-64
2020/12/01 02:36:31;;;;;;;18.20;14.88;;;;;;;;;;5097730;28;20205;-63
2020/12/01 02:38:58;;;;;;;20.52;16.58;;;;;;;;;;5097094;28;20684;-64
2020/12/01 02:41:24;;;;;;;21.08;16.50;;;;;;;;;;5098030;28;20629;-64
2020/12/01 02:43:52;;;;;;;19.50;16.45;;;;;;;;;;5097479;28;20616;-64
2020/12/01 02:46:19;;;;;;;19.73;16.40;;;;;;;;;;5096677;28;20204;-64
2020/12/01 02:48:46;;;;;;;20.55;16.25;;;;;;;;;;5098365;28;20207;-64
2020/12/01 02:51:13;;;;;;;21.05;16.58;;;;;;;;;;5098612;28;20248;-64
2020/12/01 02:53:40;;;;;;;17.67;14.38;;;;;;;;;;5096442;28;20226;-64
2020/12/01 02:56:06;;;;;;;21.65;17.00;;;;;;;;;;5097719;28;20254;-64
2020/12/01 02:58:33;;;;;;;19.13;15.52;;;;;;;;;;5096158;28;20250;-65
2020/12/01 03:01:01;;;;;;;18.67;15.73;;;;;;;;;;5095588;28;20220;-63
2020/12/01 03:03:27;;;;;;;19.38;15.27;;;;;;;;;;5095242;28;20672;-64
2020/12/01 03:05:54;;;;;;;18.55;14.50;;;;;;;;;;5094966;28;20222;-63
2020/12/01 03:08:21;;;;;;;19.02;15.20;;;;;;;;;;5094705;28;20212;-65
2020/12/01 03:10:48;;;;;;;15.77;14.18;;;;;;;;;;5096410;28;20224;-64
2020/12/01 03:13:14;;;;;;;18.23;15.45;;;;;;;;;;5098306;28;20255;-64
2020/12/01 03:15:42;;;;;;;19.48;15.35;;;;;;;;;;5098376;28;20197;-64
2020/12/01 03:18:09;;;;;;;18.48;14.95;;;;;;;;;;5098537;28;20707;-63
2020/12/01 03:20:36;;;;;;;19.45;15.80;;;;;;;;;;5096853;28;20219;-65
2020/12/01 03:23:03;;;;;;;15.90;14.20;;;;;;;;;;5095254;28;20611;-64
2020/12/01 03:25:30;;;;;;;18.50;15.23;;;;;;;;;;5094675;28;20200;-63
2020/12/01 03:27:56;;;;;;;18.20;14.40;;;;;;;;;;5094694;28;20204;-64
2020/12/01 03:30:23;;;;;;;18.70;14.77;;;;;;;;;;5094886;28;20274;-64
2020/12/01 03:32:50;;;;;;;20.17;14.75;;;;;;;;;;5095149;28;20200;-64
2020/12/01 03:35:17;;;;;;;18.02;14.25;;;;;;;;;;5094945;28;20689;-63
2020/12/01 03:37:44;;;;;;;18.42;15.77;;;;;;;;;;5094963;28;20258;-64
2020/12/01 03:40:11;;;;;;;18.58;15.38;;;;;;;;;;5094583;28;20212;-64
2020/12/01 03:42:37;;;;;;;18.30;14.48;;;;;;;;;;5094012;28;20644;-63
2020/12/01 03:45:04;;;;;;;19.05;14.45;;;;;;;;;;5094231;28;20199;-64
2020/12/01 03:47:31;;;;;;;18.17;15.20;;;;;;;;;;5094198;28;20269;-64
2020/12/01 03:49:58;;;;;;;15.80;13.60;;;;;;;;;;5093762;28;20220;-65
2020/12/01 03:52:25;;;;;;;18.80;15.20;;;;;;;;;;5094022;28;20311;-63
2020/12/01 03:54:52;;;;;;;17.38;15.32;;;;;;;;;;5093570;28;20204;-64
2020/12/01 03:57:19;;;;;;;21.88;17.05;;;;;;;;;;5094575;28;20257;-64
2020/12/01 03:59:45;;;;;;;18.20;15.23;;;;;;;;;;5093351;28;20274;-64
2020/12/01 04:02:12;;;;;;;17.73;14.48;;;;;;;;;;5095173;28;20207;-64
2020/12/01 04:07:24;;;;;;;17.38;14.10;;;;;;;;;;5114284;27;20585;-63
2020/12/01 04:09:51;;;;;;;19.15;14.27;;;;;;;;;;5113887;28;20625;-63
2020/12/01 04:12:18;;;;;;;19.52;14.70;;;;;;;;;;5113285;28;20208;-64
2020/12/01 04:14:45;;;;;;;19.25;16.00;;;;;;;;;;5113751;28;20196;-64
2020/12/01 04:17:11;;;;;;;18.38;15.13;;;;;;;;;;5113060;28;20192;-64
2020/12/01 04:19:38;;;;;;;18.35;14.90;;;;;;;;;;5112326;28;20216;-63
2020/12/01 04:22:05;;;;;;;17.50;14.93;;;;;;;;;;5114518;28;20204;-63
2020/12/01 04:24:32;;;;;;;19.20;15.52;;;;;;;;;;5116154;28;20203;-64
2020/12/01 04:26:59;;;;;;;19.20;15.57;;;;;;;;;;5113489;28;20273;-64
2020/12/01 04:29:26;;;;;;;17.98;15.52;;;;;;;;;;5112541;28;20224;-63
2020/12/01 04:31:53;;;;;;;19.38;16.25;;;;;;;;;;5112266;28;20256;-64
2020/12/01 04:34:19;;;;;;;18.00;15.63;;;;;;;;;;5112160;28;20200;-63
2020/12/01 04:36:46;;;;;;;20.08;15.77;;;;;;;;;;5117004;28;20196;-64
2020/12/01 04:39:13;;;;;;;20.38;14.95;;;;;;;;;;5114919;28;20219;-63
2020/12/01 04:41:40;;;;;;;18.88;15.48;;;;;;;;;;5111480;28;20196;-64
2020/12/01 04:44:07;;;;;;;21.02;15.85;;;;;;;;;;5112204;28;20199;-64
2020/12/01 04:46:36;;;;;;;19.08;16.00;;;;;;;;;;5111064;28;20265;-65
2020/12/01 04:49:05;;;;;;;21.33;15.70;;;;;;;;;;5111196;28;20700;-63
2020/12/01 04:51:50;;;;;;;22.50;15.65;;;;;;;;;;5112156;28;20200;-63
2020/12/01 04:54:22;;;;;;;17.65;14.60;;;;;;;;;;5112197;28;20261;-63
2020/12/01 04:57:03;;;;;;;20.88;16.58;;;;;;;;;;5112972;28;20180;-63
2020/12/01 04:59:46;;;;;;;16.75;14.95;;;;;;;;;;5113163;28;20694;-64
2020/12/01 05:02:30;;;;;;;19.33;15.35;;;;;;;;;;5112859;28;20664;-64
2020/12/01 05:05:03;;;;;;;17.45;14.10;;;;;;;;;;5114983;28;20245;-64
2020/12/01 05:07:39;;;;;;;17.60;14.65;;;;;;;;;;5111608;28;20184;-65
2020/12/01 05:10:11;;;;;;;19.45;15.25;;;;;;;;;;5111360;28;20633;-64
2020/12/01 05:12:39;;;;;;;18.13;15.00;;;;;;;;;;5111352;28;20189;-63
2020/12/01 05:15:12;;;;;;;18.45;14.85;;;;;;;;;;5110184;28;20200;-64
2020/12/01 05:17:58;;;;;;;18.27;15.32;;;;;;;;;;5103271;28;20188;-62
2020/12/01 05:20:25;;;;;;;19.25;14.20;;;;;;;;;;5096748;28;20228;-65
2020/12/01 05:22:52;;;;;;;16.83;14.18;;;;;;;;;;5096901;28;20201;-63
2020/12/01 05:25:21;;;;;;;18.52;15.07;;;;;;;;;;5096399;28;20200;-63
2020/12/01 05:27:48;;;;;;;19.73;15.43;;;;;;;;;;5096764;28;20255;-63
2020/12/01 05:30:18;;;;;;;18.05;14.73;;;;;;;;;;5097221;28;20221;-63
2020/12/01 05:32:52;;;;;;;19.45;14.05;;;;;;;;;;5097428;28;20201;-64
2020/12/01 05:35:22;;;;;;;16.98;13.80;;;;;;;;;;5099965;28;20185;-65
2020/12/01 05:37:56;;;;;;;16.75;14.45;;;;;;;;;;5102524;28;20204;-63
2020/12/01 05:40:23;;;;;;;16.48;14.48;;;;;;;;;;5102289;28;20223;-64
2020/12/01 05:42:51;;;;;;;14.85;13.10;;;;;;;;;;5098461;28;20204;-63
2020/12/01 05:45:19;;;;;;;17.13;13.90;;;;;;;;;;5097502;28;20254;-64
2020/12/01 05:47:49;;;;;;;19.30;15.25;;;;;;;;;;5097755;28;20564;-64
2020/12/01 05:50:21;;;;;;;15.80;13.20;;;;;;;;;;5098855;28;20224;-64
2020/12/01 05:52:52;;;;;;;18.83;14.68;;;;;;;;;;5097253;28;20263;-63
2020/12/01 05:55:20;;;;;;;16.60;14.85;;;;;;;;;;5096644;28;20189;-64
2020/12/01 05:57:57;;;;;;;19.05;14.95;;;;;;;;;;5096760;28;20277;-63
2020/12/01 06:00:28;;;;;;;18.02;14.23;;;;;;;;;;5097308;28;20628;-64
2020/12/01 06:03:00;;;;;;;18.95;14.63;;;;;;;;;;5097215;28;20181;-62
2020/12/01 06:05:28;;;;;;;15.70;13.75;;;;;;;;;;5095954;28;20208;-65
2020/12/01 06:07:58;;;;;;;16.17;13.90;;;;;;;;;;5096004;28;20599;-65
2020/12/01 06:10:34;;;;;;;16.75;14.00;;;;;;;;;;5096277;28;20220;-63
2020/12/01 06:13:22;;;;;;;16.38;13.95;;;;;;;;;;5095970;28;20237;-63
2020/12/01 06:15:54;;;;;;;15.43;13.43;;;;;;;;;;5070022;28;20201;-65
2020/12/01 06:18:25;;;;;;;17.73;13.75;;;;;;;;;;5099283;28;20189;-64
2020/12/01 06:20:56;;;;;;;18.20;14.98;;;;;;;;;;5098892;28;20273;-64
2020/12/01 06:23:53;;;;;;;15.95;14.25;;;;;;;;;;5098214;28;20193;-64
2020/12/01 06:26:50;;;;;;;13.55;12.15;;;;;;;;;;5036034;28;20222;-65
2020/12/01 06:29:32;;;;;;;16.40;13.63;;;;;;;;;;5094554;28;20232;-65
2020/12/01 06:32:13;;;;;;;16.13;13.35;;;;;;;;;;5095686;28;20184;-64
2020/12/01 06:34:48;;;;;;;15.15;13.52;;;;;;;;;;5063602;28;20277;-64
2020/12/01 06:37:26;;;;;;;15.18;13.38;;;;;;;;;;5098885;28;20590;-63
2020/12/01 06:39:58;;;;;;;16.98;14.93;;;;;;;;;;5100034;28;20707;-64
2020/12/01 06:42:27;;;;;;;16.65;14.32;;;;;;;;;;5099251;28;20215;-65
2020/12/01 06:44:56;;;;;;;14.68;12.15;;;;;;;;;;5099836;28;20277;-64
2020/12/01 06:47:24;;;;;;;17.08;14.23;;;;;;;;;;5099319;28;20261;-64
2020/12/01 06:49:54;;;;;;;17.77;15.10;;;;;;;;;;5099011;28;20311;-64
2020/12/01 06:52:21;;;;;;;17.27;12.85;;;;;;;;;;5098411;28;20200;-63
2020/12/01 06:54:49;;;;;;;17.85;13.88;;;;;;;;;;5099108;28;20200;-64
2020/12/01 06:57:23;;;;;;;15.35;12.63;;;;;;;;;;5099432;28;20275;-64
2020/12/01 06:59:50;;;;;;;14.90;13.30;;;;;;;;;;5097887;28;20296;-64
2020/12/01 07:02:19;;;;;;;16.75;13.23;;;;;;;;;;5098511;28;20612;-64
2020/12/01 07:04:45;;;;;;;14.80;12.48;;;;;;;;;;5097031;28;20250;-64
2020/12/01 07:07:22;;;;;;;15.40;12.80;;;;;;;;;;5096549;28;20224;-63
2020/12/01 07:09:51;;;;;;;16.42;13.60;;;;;;;;;;5096415;28;20223;-64
2020/12/01 07:12:26;;;;;;;15.38;12.85;;;;;;;;;;5095640;28;20224;-64
2020/12/01 07:14:57;;;;;;;17.83;13.23;;;;;;;;;;5095714;28;20618;-63
2020/12/01 07:17:28;;;;;;;15.05;12.05;;;;;;;;;;5095561;28;20188;-64
2020/12/01 07:19:56;;;;;;;15.70;12.48;;;;;;;;;;5095130;28;20707;-63
2020/12/01 07:22:32;;;;;;;15.50;13.35;;;;;;;;;;5094590;28;20258;-65
2020/12/01 07:25:04;;;;;;;17.45;13.38;;;;;;;;;;5094952;28;20324;-65
2020/12/01 07:27:34;;;;;;;18.50;13.60;;;;;;;;;;5094321;28;20204;-64
2020/12/01 07:30:05;;;;;;;18.00;13.57;;;;;;;;;;5094114;28;20253;-64
2020/12/01 07:32:42;;;;;;;15.60;12.75;;;;;;;;;;5094907;28;20246;-64
2020/12/01 07:35:10;;;;;;;15.13;12.13;;;;;;;;;;5094298;28;20188;-64
2020/12/01 07:37:53;;;;;;;13.82;12.38;;;;;;;;;;5094121;28;20200;-65
2020/12/01 07:40:24;;;;;;;14.63;13.05;;;;;;;;;;5093480;28;20770;-64
2020/12/01 07:42:57;;;;;;;14.40;12.88;;;;;;;;;;5093858;28;20237;-64
2020/12/01 07:45:24;;;;;;;16.65;12.73;;;;;;;;;;5094125;28;20216;-65
2020/12/01 07:47:55;;;;;;;14.77;12.65;;;;;;;;;;5094528;28;20200;-65
2020/12/01 07:50:22;;;;;;;17.10;13.20;;;;;;;;;;5095191;28;20281;-63
2020/12/01 07:52:54;;;;;;;19.55;13.82;;;;;;;;;;5094586;28;20204;-65
2020/12/01 07:55:23;;;;;;;16.83;12.68;;;;;;;;;;5094725;28;20196;-64
2020/12/01 07:57:57;;;;;;;16.50;13.85;;;;;;;;;;5094131;28;20211;-62
2020/12/01 08:00:24;;;;;;;14.80;12.95;;;;;;;;;;5093972;28;20303;-63
2020/12/01 08:02:59;;;;;;;17.85;13.50;;;;;;;;;;5094184;28;20262;-63
2020/12/01 08:05:26;;;;;;;15.82;13.57;;;;;;;;;;5098144;28;20265;-64
2020/12/01 08:07:56;;;;;;;16.33;13.75;;;;;;;;;;5101328;28;20195;-64
2020/12/01 08:10:24;;;;;;;20.15;14.68;;;;;;;;;;5099910;28;20637;-65
2020/12/01 08:12:53;;;;;;;18.25;15.10;;;;;;;;;;5101973;28;20200;-64
2020/12/01 08:15:21;;;;;;;17.25;14.80;;;;;;;;;;5101239;28;20283;-63
2020/12/01 08:17:49;;;;;;;15.65;12.98;;;;;;;;;;5099723;28;20202;-63
2020/12/01 08:20:17;;;;;;;16.58;13.48;;;;;;;;;;5097496;28;20282;-62
2020/12/01 08:22:48;;;;;;;17.25;13.50;;;;;;;;;;5095769;28;20212;-63
2020/12/01 08:25:19;;;;;;;16.13;14.38;;;;;;;;;;5097243;28;20208;-64
2020/12/01 08:27:47;;;;;;;16.48;13.23;;;;;;;;;;5097185;28;20250;-64
2020/12/01 08:30:22;;;;;;;16.98;14.13;;;;;;;;;;5095700;28;20588;-64
2020/12/01 08:32:52;;;;;;;22.63;13.48;;;;;;;;;;5094500;28;20245;-62
2020/12/01 08:35:22;;;;;;;17.33;14.00;;;;;;;;;;5094491;28;20238;-63
2020/12/01 08:37:55;;;;;;;15.45;13.77;;;;;;;;;;5094905;28;20197;-64
2020/12/01 08:40:25;;;;;;;15.80;14.10;;;;;;;;;;5094334;28;20846;-64
2020/12/01 08:43:01;;;;;;;18.92;14.90;;;;;;;;;;5094154;28;20189;-61
2020/12/01 08:45:35;;;;;;;20.52;16.35;;;;;;;;;;5095082;28;20216;-64
2020/12/01 08:48:05;;;;;;;19.60;16.38;;;;;;;;;;5094758;28;20619;-64
2020/12/01 08:50:34;;;;;;;18.92;15.77;;;;;;;;;;5094452;28;20297;-64
2020/12/01 08:53:06;;;;;;;20.67;14.52;;;;;;;;;;5097150;28;20204;-64
2020/12/01 08:55:36;;;;;;;16.52;13.93;;;;;;;;;;5102605;28;20196;-65
2020/12/01 08:58:08;;;;;;;18.77;13.70;;;;;;;;;;5102521;28;20667;-65
2020/12/01 09:00:35;;;;;;;16.75;14.65;;;;;;;;;;5101168;28;20428;-63
2020/12/01 09:03:08;;;;;;;17.25;13.55;;;;;;;;;;5100636;28;20220;-65
2020/12/01 09:05:36;;;;;;;18.33;15.00;;;;;;;;;;5098565;28;20261;-63
2020/12/01 09:08:32;;;;;;;17.60;13.98;;;;;;;;;;5098754;28;20287;-64
2020/12/01 09:11:11;;;;;;;19.08;14.18;;;;;;;;;;5097521;28;20220;-65
2020/12/01 09:13:43;;;;;;;15.65;13.10;;;;;;;;;;5101334;28;20238;-64
2020/12/01 09:16:21;;;;;;;16.83;13.40;;;;;;;;;;5102237;28;20217;-64
2020/12/01 09:19:17;;;;;;;16.88;13.65;;;;;;;;;;5101855;28;20189;-64
2020/12/01 09:21:59;;;;;;;17.17;14.13;;;;;;;;;;5102027;28;20188;-63
2020/12/01 09:24:27;;;;;;;16.95;14.30;;;;;;;;;;5100488;28;20230;-65
2020/12/01 09:27:05;;;;;;;17.67;14.00;;;;;;;;;;5098360;28;20281;-64
2020/12/01 09:29:32;;;;;;;16.05;12.88;;;;;;;;;;5099608;28;20238;-63
2020/12/01 09:31:59;;;;;;;17.48;13.63;;;;;;;;;;5097331;28;20207;-63
2020/12/01 09:34:30;;;;;;;18.13;14.02;;;;;;;;;;5098198;28;20352;-64
2020/12/01 09:36:58;;;;;;;16.02;13.40;;;;;;;;;;5097899;28;20177;-63
2020/12/01 09:39:25;;;;;;;16.38;13.73;;;;;;;;;;5096257;28;20257;-62
2020/12/01 09:42:01;;;;;;;16.70;13.43;;;;;;;;;;5097174;28;20204;-62
2020/12/01 09:44:48;;;;;;;19.35;13.82;;;;;;;;;;5097223;28;20279;-62
2020/12/01 09:47:19;;;;;;;16.65;13.07;;;;;;;;;;5097122;28;20278;-62
2020/12/01 09:49:46;;;;;;;18.98;14.43;;;;;;;;;;5097382;28;20563;-63
2020/12/01 09:52:16;;;;;;;19.88;14.18;;;;;;;;;;5098368;28;20250;-63
2020/12/01 09:54:47;;;;;;;20.05;14.77;;;;;;;;;;5097828;28;20692;-62
2020/12/01 09:57:20;;;;;;;15.27;12.63;;;;;;;;;;5098931;28;20192;-66
2020/12/01 10:00:01;;;;;;;16.73;14.27;;;;;;;;;;5098333;28;20447;-61
2020/12/01 10:05:35;;;;;;;14.65;12.38;;;;;;;;;;5097015;28;20289;-62
2020/12/01 10:11:04;;;;;;;15.70;13.00;;;;;;;;;;5093538;28;20306;-62
2020/12/01 10:13:44;;;;;;;14.85;13.00;;;;;;;;;;5097131;28;20199;-63
2020/12/01 10:35:41;;;;;;;15.63;13.05;;;;;;;;;;5096015;28;20226;-62
2020/12/01 10:38:09;;;;;;;15.80;11.65;;;;;;;;;;5095386;28;20281;-63
2020/12/01 10:40:35;;;;;;;17.38;13.15;;;;;;;;;;5095357;28;20220;-62
2020/12/01 10:43:02;;;;;;;15.45;11.63;;;;;;;;;;5095671;28;20250;-62
2020/12/01 10:45:29;;;;;;;15.07;12.40;;;;;;;;;;5095961;28;20208;-62
2020/12/01 10:47:59;;;;;;;13.02;11.35;;;;;;;;;;5095896;28;20224;-64
2020/12/01 10:50:27;;;;;;;14.05;10.57;;;;;;;;;;5095591;28;20231;-62
2020/12/01 10:52:54;;;;;;;12.45;11.15;;;;;;;;;;5095603;28;20208;-63
2020/12/01 10:55:23;;;;;;;13.73;11.52;;;;;;;;;;5100952;28;20207;-63
2020/12/01 10:57:50;;;;;;;14.70;12.75;;;;;;;;;;5103395;28;20227;-64
2020/12/01 11:00:17;;;;;;;14.15;11.50;;;;;;;;;;5101162;28;20220;-63
2020/12/01 11:02:44;;;;;;;13.95;12.27;;;;;;;;;;5097679;28;20197;-62
2020/12/01 11:05:12;;;;;;;16.80;13.45;;;;;;;;;;5095446;28;20200;-62
2020/12/01 11:07:39;;;;;;;13.55;11.10;;;;;;;;;;5096525;28;20223;-62
2020/12/01 11:10:06;;;;;;;15.60;13.60;;;;;;;;;;5097926;28;20621;-63
2020/12/01 11:12:34;;;;;;;15.43;12.30;;;;;;;;;;5097279;28;20211;-62
2020/12/01 11:15:00;;;;;;;17.77;13.73;;;;;;;;;;5096147;28;20257;-63
2020/12/01 11:17:27;;;;;;;14.48;12.60;;;;;;;;;;5094876;28;20196;-62
2020/12/01 11:19:54;;;;;;;14.77;11.88;;;;;;;;;;5094831;28;20266;-62
2020/12/01 11:22:21;;;;;;;14.25;12.07;;;;;;;;;;5095569;28;20200;-62
2020/12/01 11:24:47;;;;;;;16.50;11.23;;;;;;;;;;5095391;28;20216;-61
2020/12/01 11:27:14;;;;;;;13.32;11.30;;;;;;;;;;5094989;28;20220;-62
2020/12/01 11:29:42;;;;;;;17.02;11.45;;;;;;;;;;5095296;28;20250;-62
2020/12/01 11:32:09;;;;;;;15.90;12.73;;;;;;;;;;5097469;28;20206;-63
2020/12/01 11:34:36;;;;;;;14.75;13.13;;;;;;;;;;5100752;28;20196;-62
2020/12/01 11:37:02;;;;;;;14.32;11.65;;;;;;;;;;5098080;28;20199;-61
2020/12/01 11:39:29;;;;;;;15.65;12.65;;;;;;;;;;5096890;28;20246;-62
2020/12/01 11:41:56;;;;;;;14.20;12.70;;;;;;;;;;5097444;28;20613;-63
2020/12/01 11:44:23;;;;;;;15.27;12.68;;;;;;;;;;5099449;28;20215;-63
2020/12/01 11:46:50;;;;;;;15.32;12.65;;;;;;;;;;5095604;28;20269;-64
2020/12/01 11:49:17;;;;;;;14.90;12.80;;;;;;;;;;5095351;28;20582;-63
2020/12/01 11:51:47;;;;;;;15.82;11.98;;;;;;;;;;5095687;28;20200;-63
2020/12/01 11:54:14;;;;;;;14.70;12.68;;;;;;;;;;5095394;28;20229;-63
2020/12/01 11:56:40;;;;;;;28.60;17.00;;;;;;;;;;5095680;28;20226;-64
2020/12/01 11:59:07;;;;;;;14.55;11.18;;;;;;;;;;5097337;28;20273;-62
2020/12/01 12:01:35;;;;;;;13.40;10.90;;;;;;;;;;5095177;28;20630;-62
2020/12/01 12:04:02;;;;;;;12.95;10.90;;;;;;;;;;5094901;28;20676;-66
2020/12/01 12:06:29;;;;;;;13.45;11.63;;;;;;;;;;5095205;28;20298;-62
2020/12/01 12:08:56;;;;;;;15.30;11.38;;;;;;;;;;5093483;28;20222;-61
2020/12/01 12:11:23;;;;;;;12.82;10.30;;;;;;;;;;5094011;28;20203;-62
2020/12/01 12:13:49;;;;;;;14.95;11.73;;;;;;;;;;5094033;28;20676;-62
2020/12/01 12:16:17;;;;;;;14.38;11.93;;;;;;;;;;5094331;28;20212;-62
2020/12/01 12:18:44;;;;;;;13.68;10.90;;;;;;;;;;5094264;28;20740;-62
2020/12/01 12:21:11;;;;;;;12.50;11.20;;;;;;;;;;5094194;28;20610;-63
2020/12/01 12:23:38;;;;;;;14.90;11.80;;;;;;;;;;5095601;28;20215;-62
2020/12/01 12:26:05;;;;;;;13.68;11.10;;;;;;;;;;5094301;28;20200;-62
2020/12/01 12:28:32;;;;;;;13.77;11.00;;;;;;;;;;5097790;28;20205;-62
2020/12/01 12:31:01;;;;;;;14.07;11.75;;;;;;;;;;5098062;28;20256;-63
2020/12/01 12:33:28;;;;;;;12.35;10.65;;;;;;;;;;5097703;28;20204;-63
2020/12/01 12:35:55;;;;;;;14.18;11.45;;;;;;;;;;5097907;28;20200;-62
2020/12/01 12:38:23;;;;;;;12.50;10.75;;;;;;;;;;5099058;28;20725;-62
2020/12/01 12:40:51;;;;;;;15.60;11.63;;;;;;;;;;5100583;28;20270;-62
2020/12/01 12:43:19;;;;;;;11.45;10.00;;;;;;;;;;5098394;28;20208;-63
2020/12/01 12:45:46;;;;;;;13.15;9.73;;;;;;;;;;5098346;28;20208;-62
2020/12/01 12:48:14;;;;;;;13.32;10.98;;;;;;;;;;5098072;28;20273;-62
2020/12/01 12:50:41;;;;;;;12.00;10.02;;;;;;;;;;5097525;28;20224;-62
2020/12/01 12:53:07;;;;;;;13.20;10.52;;;;;;;;;;5098197;28;20249;-61
2020/12/01 12:55:35;;;;;;;12.00;10.43;;;;;;;;;;5097511;28;20204;-61
2020/12/01 12:58:02;;;;;;;14.77;11.20;;;;;;;;;;5098403;28;20541;-64
2020/12/01 13:00:29;;;;;;;12.77;9.30;;;;;;;;;;5096813;28;20714;-63
2020/12/01 13:02:56;;;;;;;14.27;9.93;;;;;;;;;;5097528;28;20254;-63
2020/12/01 13:05:23;;;;;;;10.18;8.80;;;;;;;;;;5097810;28;20212;-62
2020/12/01 13:07:50;;;;;;;12.23;9.63;;;;;;;;;;5097296;28;20224;-62
2020/12/01 13:10:16;;;;;;;12.52;9.35;;;;;;;;;;5096895;28;20242;-61
2020/12/01 13:12:44;;;;;;;12.18;9.30;;;;;;;;;;5097245;28;20208;-62
2020/12/01 13:15:12;;;;;;;13.55;11.90;;;;;;;;;;5097215;28;20262;-62
2020/12/01 13:17:40;;;;;;;13.68;10.40;;;;;;;;;;5099103;28;20204;-63
2020/12/01 13:20:08;;;;;;;14.45;11.45;;;;;;;;;;5102608;28;20220;-62
2020/12/01 13:22:35;;;;;;;13.45;10.82;;;;;;;;;;5103091;28;20196;-63
2020/12/01 13:25:01;;;;;;;13.43;10.60;;;;;;;;;;5099018;28;20266;-62
2020/12/01 13:27:28;;;;;;;11.95;9.85;;;;;;;;;;5097568;28;20216;-63
2020/12/01 13:29:56;;;;;;;12.90;9.50;;;;;;;;;;5097302;28;20304;-63
2020/12/01 13:32:23;;;;;;;12.20;9.35;;;;;;;;;;5096717;28;20672;-64
2020/12/01 13:34:51;;;;;;;12.63;10.68;;;;;;;;;;5098464;28;20204;-64
2020/12/01 13:37:18;;;;;;;13.52;11.80;;;;;;;;;;5096833;28;20315;-65
2020/12/01 13:39:45;;;;;;;15.95;10.75;;;;;;;;;;5096008;28;20277;-63
2020/12/01 13:42:11;;;;;;;12.32;10.48;;;;;;;;;;5096877;28;20249;-64
2020/12/01 13:44:38;;;;;;;12.88;11.15;;;;;;;;;;5096376;28;20215;-65
2020/12/01 13:47:06;;;;;;;11.38;9.02;;;;;;;;;;5096519;28;20265;-64
2020/12/01 13:49:33;;;;;;;15.40;10.32;;;;;;;;;;5096315;28;20216;-64
2020/12/01 13:51:59;;;;;;;14.75;10.55;;;;;;;;;;5096562;28;20257;-64
2020/12/01 13:54:26;;;;;;;13.10;10.73;;;;;;;;;;5096411;28;20609;-64
2020/12/01 13:56:54;;;;;;;11.88;10.00;;;;;;;;;;5097571;28;20201;-63
2020/12/01 13:59:20;;;;;;;12.68;9.40;;;;;;;;;;5099621;28;20273;-64
2020/12/01 14:01:47;;;;;;;11.77;10.07;;;;;;;;;;5098059;28;20204;-64
2020/12/01 14:04:15;;;;;;;13.40;10.25;;;;;;;;;;5096555;28;20204;-65
2020/12/01 14:06:42;;;;;;;12.02;10.77;;;;;;;;;;5097653;28;20297;-65
2020/12/01 14:09:08;;;;;;;12.40;10.43;;;;;;;;;;5099672;28;20289;-63
2020/12/01 14:11:35;;;;;;;12.93;10.93;;;;;;;;;;5098394;28;20731;-64
2020/12/01 14:14:02;;;;;;;12.57;9.82;;;;;;;;;;5098877;28;20578;-64
2020/12/01 14:16:29;;;;;;;13.98;10.30;;;;;;;;;;5097648;28;20204;-63
2020/12/01 14:18:55;;;;;;;13.43;10.15;;;;;;;;;;5098392;28;20273;-64
2020/12/01 14:21:23;;;;;;;13.13;10.70;;;;;;;;;;5096774;28;20226;-64
2020/12/01 14:23:50;;;;;;;12.68;10.30;;;;;;;;;;5096037;28;20200;-64
2020/12/01 14:26:16;;;;;;;11.93;9.63;;;;;;;;;;5096230;28;20253;-63
2020/12/01 14:28:43;;;;;;;12.35;10.20;;;;;;;;;;5096490;28;20261;-64
2020/12/01 14:31:10;;;;;;;12.80;9.90;;;;;;;;;;5097245;28;20200;-63
2020/12/01 14:33:38;;;;;;;12.50;10.68;;;;;;;;;;5096190;28;20196;-66
2020/12/01 14:36:08;;;;;;;12.32;10.95;;;;;;;;;;5095977;28;20207;-64
2020/12/01 14:38:36;;;;;;;13.38;10.93;;;;;;;;;;5097084;28;20188;-65
2020/12/01 14:41:03;;;;;;;13.30;11.57;;;;;;;;;;5095854;28;20224;-65
2020/12/01 14:43:30;;;;;;;13.55;10.85;;;;;;;;;;5096172;28;20200;-65
2020/12/01 14:45:58;;;;;;;13.30;11.30;;;;;;;;;;5096204;28;20208;-63
2020/12/01 14:48:40;;;;;;;13.00;10.63;;;;;;;;;;5095720;28;20269;-66
2020/12/01 14:51:22;;;;;;;13.75;10.40;;;;;;;;;;5093840;28;20287;-65
2020/12/01 14:53:53;;;;;;;14.77;11.05;;;;;;;;;;5062378;28;20631;-66
2020/12/01 14:56:33;;;;;;;14.75;10.55;;;;;;;;;;5095856;28;20189;-65
2020/12/01 14:59:07;;;;;;;13.05;10.50;;;;;;;;;;5094328;28;20266;-65